Time;durP1;ratioP1;P1;durP2;ratioP2;P2;SDS_P1;SDS_P2;PMS_P1;PMS_P2;Temp;Humidity;BMP_temperature;BMP_pressure;BME280_temperature;BME280_humidity;BME280_pressure;Samples;Min_cycle;Max_cycle;Signal;HPM_P1;HPM_P2
2022/02/28 00:02:22;;;;;;;15.20;9.47;;;;;;;;;;4996380;28;20209;-81
2022/02/28 00:04:50;;;;;;;11.20;8.77;;;;;;;;;;4995532;28;20270;-80
2022/02/28 00:07:17;;;;;;;14.30;8.20;;;;;;;;;;5009674;28;20273;-81
2022/02/28 00:09:46;;;;;;;14.13;8.00;;;;;;;;;;5011867;28;20198;-81
2022/02/28 00:12:13;;;;;;;9.40;6.70;;;;;;;;;;5012409;28;20226;-81
2022/02/28 00:14:40;;;;;;;11.83;7.23;;;;;;;;;;5009879;28;20577;-81
2022/02/28 00:17:08;;;;;;;12.73;7.40;;;;;;;;;;5003018;28;20235;-81
2022/02/28 00:19:35;;;;;;;13.73;6.70;;;;;;;;;;5009752;28;20286;-81
2022/02/28 00:22:02;;;;;;;12.23;6.87;;;;;;;;;;4997704;28;20246;-81
2022/02/28 00:24:29;;;;;;;12.87;8.00;;;;;;;;;;5001121;28;20234;-81
2022/02/28 00:26:58;;;;;;;12.07;7.23;;;;;;;;;;5011134;28;20839;-80
2022/02/28 00:29:25;;;;;;;11.67;7.37;;;;;;;;;;5004795;28;20208;-81
2022/02/28 00:31:52;;;;;;;11.63;7.77;;;;;;;;;;5004217;28;20287;-81
2022/02/28 00:34:19;;;;;;;13.90;7.60;;;;;;;;;;5005051;28;20772;-81
2022/02/28 00:36:47;;;;;;;11.00;7.13;;;;;;;;;;5001824;28;20254;-81
2022/02/28 00:39:14;;;;;;;9.30;6.57;;;;;;;;;;4999603;28;20231;-81
2022/02/28 00:41:41;;;;;;;10.23;6.70;;;;;;;;;;4993857;28;20359;-80
2022/02/28 00:44:10;;;;;;;10.00;6.77;;;;;;;;;;5011782;28;20270;-81
2022/02/28 00:46:37;;;;;;;13.27;6.83;;;;;;;;;;5012055;28;20310;-81
2022/02/28 00:49:04;;;;;;;12.73;7.57;;;;;;;;;;5012333;28;20242;-81
2022/02/28 00:51:31;;;;;;;12.33;6.43;;;;;;;;;;4999547;28;20235;-81
2022/02/28 00:53:58;;;;;;;12.33;5.77;;;;;;;;;;4998241;28;20291;-81
2022/02/28 00:56:26;;;;;;;9.43;6.10;;;;;;;;;;4994643;28;20625;-81
2022/02/28 00:58:53;;;;;;;8.77;6.03;;;;;;;;;;4993265;28;20266;-81
2022/02/28 01:01:22;;;;;;;12.03;6.60;;;;;;;;;;5002012;28;20308;-81
2022/02/28 01:03:49;;;;;;;11.10;6.57;;;;;;;;;;4995683;28;20238;-81
2022/02/28 01:06:16;;;;;;;9.40;5.87;;;;;;;;;;5002466;28;20261;-81
2022/02/28 01:08:43;;;;;;;9.43;6.30;;;;;;;;;;5014725;28;20238;-81
2022/02/28 01:11:10;;;;;;;10.67;5.70;;;;;;;;;;4998939;28;20671;-81
2022/02/28 01:13:37;;;;;;;9.53;6.20;;;;;;;;;;4996387;28;20236;-81
2022/02/28 01:16:05;;;;;;;10.10;6.37;;;;;;;;;;4995857;28;20671;-80
2022/02/28 01:18:34;;;;;;;12.03;6.03;;;;;;;;;;5010723;28;20204;-81
2022/02/28 01:21:02;;;;;;;9.63;5.97;;;;;;;;;;4996200;28;20296;-81
2022/02/28 01:23:29;;;;;;;12.43;6.37;;;;;;;;;;4997630;28;20292;-81
2022/02/28 01:25:56;;;;;;;11.07;6.20;;;;;;;;;;4997168;28;20309;-81
2022/02/28 01:28:24;;;;;;;10.67;6.17;;;;;;;;;;5015646;28;20617;-81
2022/02/28 01:30:51;;;;;;;12.57;6.27;;;;;;;;;;5006396;28;20232;-81
2022/02/28 01:33:18;;;;;;;9.83;6.13;;;;;;;;;;5015390;28;20200;-81
2022/02/28 01:35:47;;;;;;;11.23;6.33;;;;;;;;;;5014168;28;20234;-82
2022/02/28 01:38:14;;;;;;;8.63;5.80;;;;;;;;;;5014860;28;20287;-81
2022/02/28 01:40:41;;;;;;;10.67;6.57;;;;;;;;;;5000324;28;20244;-81
2022/02/28 01:43:08;;;;;;;13.03;6.50;;;;;;;;;;5005602;28;20671;-81
2022/02/28 01:45:36;;;;;;;12.57;6.63;;;;;;;;;;4997775;28;20237;-81
2022/02/28 01:48:03;;;;;;;12.37;6.03;;;;;;;;;;5002055;28;20246;-81
2022/02/28 01:50:30;;;;;;;9.53;6.30;;;;;;;;;;5010758;28;20623;-80
2022/02/28 01:52:59;;;;;;;10.53;6.80;;;;;;;;;;5000640;28;20232;-81
2022/02/28 01:55:27;;;;;;;10.70;6.73;;;;;;;;;;5010223;28;20243;-81
2022/02/28 01:57:55;;;;;;;11.57;6.77;;;;;;;;;;5012927;28;20246;-81
2022/02/28 02:00:23;;;;;;;11.30;6.73;;;;;;;;;;5014169;28;20232;-80
2022/02/28 02:02:50;;;;;;;10.90;7.07;;;;;;;;;;5007119;28;20557;-79
2022/02/28 02:05:17;;;;;;;11.50;6.47;;;;;;;;;;5014191;28;20237;-79
2022/02/28 02:07:45;;;;;;;10.43;6.93;;;;;;;;;;5013372;28;20296;-79
2022/02/28 02:10:14;;;;;;;11.70;6.90;;;;;;;;;;5014150;28;20223;-80
2022/02/28 02:12:41;;;;;;;11.10;6.60;;;;;;;;;;5014367;28;20235;-81
2022/02/28 02:15:10;;;;;;;12.57;7.07;;;;;;;;;;5012543;28;20293;-81
2022/02/28 02:17:37;;;;;;;12.87;6.80;;;;;;;;;;5007074;28;20205;-81
2022/02/28 02:20:07;;;;;;;9.67;6.97;;;;;;;;;;5002780;28;20236;-81
2022/02/28 02:22:34;;;;;;;12.03;6.30;;;;;;;;;;5002592;28;20228;-81
2022/02/28 02:25:01;;;;;;;11.00;6.27;;;;;;;;;;5003729;28;20283;-81
2022/02/28 02:27:29;;;;;;;12.37;6.67;;;;;;;;;;4994423;28;20262;-81
2022/02/28 02:29:56;;;;;;;12.47;6.43;;;;;;;;;;4994991;28;20232;-81
2022/02/28 02:32:23;;;;;;;9.80;6.63;;;;;;;;;;5012322;28;20236;-81
2022/02/28 02:34:50;;;;;;;12.20;7.00;;;;;;;;;;5013609;28;20200;-81
2022/02/28 02:37:19;;;;;;;10.67;7.00;;;;;;;;;;5006417;28;20291;-79
2022/02/28 02:39:46;;;;;;;11.77;6.40;;;;;;;;;;5012587;28;20216;-80
2022/02/28 02:42:13;;;;;;;11.33;7.10;;;;;;;;;;5012327;28;20232;-80
2022/02/28 02:44:41;;;;;;;13.13;7.30;;;;;;;;;;5013812;28;20236;-80
2022/02/28 02:47:08;;;;;;;11.57;6.53;;;;;;;;;;5013790;28;20315;-80
2022/02/28 02:49:35;;;;;;;10.80;6.60;;;;;;;;;;5013475;28;20288;-80
2022/02/28 02:52:02;;;;;;;14.53;7.30;;;;;;;;;;5000783;28;20240;-80
2022/02/28 02:54:31;;;;;;;11.53;6.77;;;;;;;;;;4997635;28;20755;-80
2022/02/28 02:56:58;;;;;;;10.20;6.57;;;;;;;;;;5003830;28;20303;-81
2022/02/28 02:59:25;;;;;;;11.37;7.37;;;;;;;;;;5012196;28;20248;-79
2022/02/28 03:01:52;;;;;;;10.07;6.80;;;;;;;;;;5013106;28;20679;-79
2022/02/28 03:04:20;;;;;;;10.10;6.60;;;;;;;;;;4998985;28;20241;-79
2022/02/28 03:06:47;;;;;;;11.40;6.80;;;;;;;;;;5003037;28;20259;-80
2022/02/28 03:09:14;;;;;;;9.67;6.77;;;;;;;;;;5007456;28;20284;-81
2022/02/28 03:11:43;;;;;;;10.73;7.03;;;;;;;;;;4999245;28;20239;-80
2022/02/28 03:14:11;;;;;;;11.77;6.80;;;;;;;;;;4998868;28;20283;-80
2022/02/28 03:16:38;;;;;;;10.70;6.63;;;;;;;;;;4998538;28;20228;-81
2022/02/28 03:19:05;;;;;;;12.37;7.17;;;;;;;;;;5006751;28;20230;-81
2022/02/28 03:21:33;;;;;;;10.93;6.93;;;;;;;;;;5013320;28;20342;-81
2022/02/28 03:24:00;;;;;;;11.23;6.73;;;;;;;;;;5013212;28;20246;-81
2022/02/28 03:26:27;;;;;;;11.67;7.10;;;;;;;;;;4994799;28;20265;-81
2022/02/28 03:28:56;;;;;;;10.97;6.83;;;;;;;;;;4997309;28;20212;-81
2022/02/28 03:31:23;;;;;;;10.57;6.80;;;;;;;;;;5006307;28;20289;-81
2022/02/28 03:33:50;;;;;;;10.20;7.33;;;;;;;;;;5008258;28;20308;-81
2022/02/28 03:36:17;;;;;;;13.03;6.87;;;;;;;;;;4999658;28;20236;-81
2022/02/28 03:38:44;;;;;;;11.87;6.73;;;;;;;;;;5010397;28;20229;-81
2022/02/28 03:41:12;;;;;;;10.97;6.70;;;;;;;;;;4993222;28;20235;-81
2022/02/28 03:43:39;;;;;;;11.20;7.30;;;;;;;;;;4999538;28;20234;-81
2022/02/28 03:46:07;;;;;;;11.17;6.47;;;;;;;;;;5006353;28;20280;-81
2022/02/28 03:48:35;;;;;;;10.67;7.00;;;;;;;;;;5000769;28;20226;-81
2022/02/28 03:51:04;;;;;;;13.87;7.13;;;;;;;;;;5011783;28;20242;-81
2022/02/28 03:53:31;;;;;;;11.43;7.17;;;;;;;;;;5012482;28;20202;-81
2022/02/28 03:55:59;;;;;;;10.47;6.60;;;;;;;;;;5011029;28;20236;-81
2022/02/28 03:58:26;;;;;;;10.10;6.93;;;;;;;;;;4998803;28;20266;-81
2022/02/28 04:00:54;;;;;;;12.17;6.70;;;;;;;;;;5005611;28;20200;-81
2022/02/28 04:03:24;;;;;;;11.30;6.87;;;;;;;;;;5006516;28;20232;-81
2022/02/28 04:05:51;;;;;;;10.13;6.80;;;;;;;;;;5001405;28;20273;-81
2022/02/28 04:08:18;;;;;;;9.80;6.87;;;;;;;;;;5012062;28;20323;-81
2022/02/28 04:10:45;;;;;;;11.23;7.17;;;;;;;;;;5011617;28;20235;-81
2022/02/28 04:13:13;;;;;;;11.67;7.23;;;;;;;;;;5001997;28;20680;-81
2022/02/28 04:15:40;;;;;;;12.00;7.40;;;;;;;;;;4998256;28;20229;-80
2022/02/28 04:18:07;;;;;;;14.63;7.80;;;;;;;;;;5011829;28;20291;-81
2022/02/28 04:20:36;;;;;;;11.07;6.90;;;;;;;;;;4999569;28;20199;-81
2022/02/28 04:23:03;;;;;;;11.50;7.53;;;;;;;;;;5000605;28;20226;-81
2022/02/28 04:25:30;;;;;;;11.63;7.47;;;;;;;;;;5012008;28;20235;-81
2022/02/28 04:27:58;;;;;;;11.77;6.57;;;;;;;;;;5011953;28;20262;-81
2022/02/28 04:30:25;;;;;;;11.53;7.47;;;;;;;;;;5011786;28;20234;-81
2022/02/28 04:32:52;;;;;;;11.20;7.40;;;;;;;;;;4998147;28;20230;-81
2022/02/28 04:35:19;;;;;;;14.23;7.87;;;;;;;;;;5005690;28;20244;-81
2022/02/28 04:37:49;;;;;;;12.73;7.70;;;;;;;;;;5013424;28;20263;-81
2022/02/28 04:40:16;;;;;;;11.63;7.47;;;;;;;;;;5006970;28;20199;-81
2022/02/28 04:42:43;;;;;;;11.20;7.40;;;;;;;;;;5005609;28;20201;-81
2022/02/28 04:45:11;;;;;;;10.67;6.87;;;;;;;;;;5015082;28;20240;-81
2022/02/28 04:47:38;;;;;;;10.97;6.90;;;;;;;;;;5011690;28;20305;-81
2022/02/28 04:50:06;;;;;;;13.00;7.23;;;;;;;;;;5007885;28;20198;-81
2022/02/28 04:52:33;;;;;;;10.83;7.20;;;;;;;;;;5010538;28;20245;-81
2022/02/28 04:55:01;;;;;;;15.43;7.03;;;;;;;;;;5014654;28;20289;-81
2022/02/28 04:57:29;;;;;;;9.97;6.90;;;;;;;;;;5015868;28;20245;-81
2022/02/28 04:59:57;;;;;;;10.60;6.77;;;;;;;;;;5014890;28;20236;-81
2022/02/28 05:02:24;;;;;;;11.70;6.97;;;;;;;;;;5012222;28;20310;-80
2022/02/28 05:04:52;;;;;;;13.93;7.30;;;;;;;;;;4998343;28;20613;-81
2022/02/28 05:07:19;;;;;;;10.27;6.53;;;;;;;;;;5007742;28;20309;-81
2022/02/28 05:09:47;;;;;;;9.43;6.73;;;;;;;;;;5005893;28;20285;-81
2022/02/28 05:12:15;;;;;;;11.43;7.00;;;;;;;;;;4996782;28;20293;-81
2022/02/28 05:14:42;;;;;;;10.57;7.17;;;;;;;;;;5003633;28;20759;-81
2022/02/28 05:17:10;;;;;;;11.17;7.00;;;;;;;;;;5008728;28;20277;-81
2022/02/28 05:19:37;;;;;;;11.87;7.07;;;;;;;;;;5011663;28;20239;-81
2022/02/28 05:22:04;;;;;;;12.57;7.13;;;;;;;;;;4999090;28;20281;-81
2022/02/28 05:24:32;;;;;;;10.67;6.67;;;;;;;;;;5012830;28;20209;-81
2022/02/28 05:26:59;;;;;;;12.80;7.20;;;;;;;;;;5010566;28;20325;-81
2022/02/28 05:29:28;;;;;;;12.00;7.17;;;;;;;;;;5014801;28;20201;-81
2022/02/28 05:31:55;;;;;;;10.77;7.00;;;;;;;;;;5014847;28;20214;-81
2022/02/28 05:34:23;;;;;;;11.53;7.07;;;;;;;;;;5014790;28;20297;-80
2022/02/28 05:36:50;;;;;;;11.40;6.87;;;;;;;;;;5005697;28;20625;-81
2022/02/28 05:39:17;;;;;;;10.27;7.20;;;;;;;;;;4998332;28;20234;-81
2022/02/28 05:41:44;;;;;;;11.17;7.53;;;;;;;;;;5004207;28;20764;-81
2022/02/28 05:44:11;;;;;;;9.13;7.00;;;;;;;;;;5001817;28;20233;-81
2022/02/28 05:46:40;;;;;;;11.73;7.50;;;;;;;;;;5010903;28;20222;-81
2022/02/28 05:49:07;;;;;;;14.10;7.53;;;;;;;;;;5014054;28;20633;-81
2022/02/28 05:51:34;;;;;;;12.43;7.43;;;;;;;;;;5013054;28;20288;-81
2022/02/28 05:54:02;;;;;;;12.90;7.13;;;;;;;;;;5014791;28;20234;-81
2022/02/28 05:56:30;;;;;;;12.30;7.03;;;;;;;;;;5005155;28;20206;-81
2022/02/28 05:58:57;;;;;;;10.80;6.83;;;;;;;;;;5000741;28;20231;-80
2022/02/28 06:01:24;;;;;;;11.50;6.83;;;;;;;;;;5011866;28;20226;-81
2022/02/28 06:03:53;;;;;;;10.90;7.00;;;;;;;;;;5014243;28;20301;-81
2022/02/28 06:06:20;;;;;;;11.23;7.30;;;;;;;;;;5008566;28;20289;-81
2022/02/28 06:08:47;;;;;;;9.60;7.03;;;;;;;;;;5002706;28;20253;-82
2022/02/28 06:11:15;;;;;;;11.40;7.30;;;;;;;;;;5008173;28;20280;-80
2022/02/28 06:13:42;;;;;;;10.63;7.57;;;;;;;;;;4999856;28;20283;-81
2022/02/28 06:16:09;;;;;;;11.97;7.77;;;;;;;;;;5013993;28;20205;-81
2022/02/28 06:18:37;;;;;;;10.93;7.67;;;;;;;;;;4995857;28;20288;-82
2022/02/28 06:21:05;;;;;;;15.60;10.10;;;;;;;;;;5000538;28;20205;-81
2022/02/28 06:23:33;;;;;;;18.67;12.90;;;;;;;;;;5012755;28;20236;-81
2022/02/28 06:26:00;;;;;;;19.33;13.20;;;;;;;;;;5000649;28;20199;-82
2022/02/28 06:28:31;;;;;;;17.13;11.63;;;;;;;;;;4996809;28;20250;-81
2022/02/28 06:30:58;;;;;;;14.40;10.37;;;;;;;;;;5008845;28;20213;-80
2022/02/28 06:33:25;;;;;;;15.60;10.33;;;;;;;;;;4999219;28;20327;-81
2022/02/28 06:35:53;;;;;;;14.33;9.43;;;;;;;;;;5006548;28;20554;-81
2022/02/28 06:38:21;;;;;;;13.23;9.40;;;;;;;;;;5009811;28;20429;-81
2022/02/28 06:40:49;;;;;;;13.37;9.20;;;;;;;;;;5001645;28;20312;-83
2022/02/28 06:43:17;;;;;;;14.90;9.37;;;;;;;;;;5010672;28;20583;-81
2022/02/28 06:45:45;;;;;;;14.67;9.03;;;;;;;;;;5000120;28;20733;-81
2022/02/28 06:48:12;;;;;;;14.20;8.87;;;;;;;;;;4996924;28;20261;-82
2022/02/28 06:50:40;;;;;;;15.20;9.53;;;;;;;;;;4995983;28;20268;-81
2022/02/28 06:53:08;;;;;;;16.10;9.20;;;;;;;;;;5010446;28;20249;-81
2022/02/28 06:55:40;;;;;;;16.30;9.17;;;;;;;;;;5013384;28;20304;-81
2022/02/28 06:58:07;;;;;;;15.90;9.33;;;;;;;;;;5009060;28;20234;-80
2022/02/28 07:00:35;;;;;;;15.67;9.17;;;;;;;;;;4993137;28;20191;-81
2022/02/28 07:03:02;;;;;;;15.30;9.57;;;;;;;;;;5002774;28;20298;-80
2022/02/28 07:05:29;;;;;;;16.07;9.87;;;;;;;;;;4993381;28;20211;-81
2022/02/28 07:07:57;;;;;;;15.23;9.87;;;;;;;;;;5009485;28;20308;-81
2022/02/28 07:10:24;;;;;;;14.67;8.80;;;;;;;;;;5009253;28;20237;-80
2022/02/28 07:12:53;;;;;;;16.60;10.10;;;;;;;;;;4995900;28;20287;-81
2022/02/28 07:15:23;;;;;;;17.10;11.00;;;;;;;;;;4993630;28;20235;-81
2022/02/28 07:17:50;;;;;;;13.47;9.70;;;;;;;;;;4992910;28;20286;-81
2022/02/28 07:20:18;;;;;;;16.13;10.90;;;;;;;;;;5002696;28;20298;-80
2022/02/28 07:22:45;;;;;;;13.57;8.33;;;;;;;;;;5001481;28;20226;-81
2022/02/28 07:25:12;;;;;;;12.07;7.67;;;;;;;;;;5004383;28;20203;-81
2022/02/28 07:27:39;;;;;;;14.23;8.47;;;;;;;;;;5008142;28;20306;-81
2022/02/28 07:30:09;;;;;;;11.83;8.50;;;;;;;;;;5011728;28;20286;-81
2022/02/28 07:32:36;;;;;;;12.03;7.40;;;;;;;;;;5011591;28;20227;-81
2022/02/28 07:35:04;;;;;;;14.17;7.90;;;;;;;;;;5012696;28;20237;-80
2022/02/28 07:37:35;;;;;;;12.03;8.13;;;;;;;;;;4993180;28;20632;-81
2022/02/28 07:40:02;;;;;;;14.47;7.70;;;;;;;;;;5010911;28;20627;-80
2022/02/28 07:42:29;;;;;;;14.53;8.23;;;;;;;;;;5012283;28;20294;-81
2022/02/28 07:44:56;;;;;;;14.37;8.73;;;;;;;;;;4998182;28;20666;-81
2022/02/28 07:47:25;;;;;;;13.33;8.67;;;;;;;;;;5001215;28;20280;-82
2022/02/28 07:49:52;;;;;;;13.77;8.63;;;;;;;;;;5000565;28;20636;-81
2022/02/28 07:52:19;;;;;;;12.17;8.00;;;;;;;;;;4998359;28;20229;-81
2022/02/28 07:54:46;;;;;;;12.67;8.20;;;;;;;;;;4999392;28;20299;-82
2022/02/28 07:57:13;;;;;;;12.40;8.60;;;;;;;;;;5000384;28;20289;-82
2022/02/28 07:59:41;;;;;;;16.17;9.37;;;;;;;;;;5007099;28;20264;-82
2022/02/28 08:02:09;;;;;;;14.47;9.33;;;;;;;;;;5003470;28;20195;-82
2022/02/28 08:04:37;;;;;;;13.23;9.50;;;;;;;;;;5012073;28;20313;-82
2022/02/28 08:07:05;;;;;;;17.23;10.43;;;;;;;;;;5000965;28;20236;-81
2022/02/28 08:09:32;;;;;;;20.73;10.43;;;;;;;;;;4996184;28;20220;-82
2022/02/28 08:12:00;;;;;;;19.40;10.50;;;;;;;;;;4994107;28;20361;-81
2022/02/28 08:14:27;;;;;;;24.70;11.43;;;;;;;;;;4992205;28;20767;-82
2022/02/28 08:16:54;;;;;;;27.83;11.40;;;;;;;;;;4992198;28;20949;-81
2022/02/28 08:19:21;;;;;;;19.83;11.03;;;;;;;;;;5000178;28;20239;-81
2022/02/28 08:21:50;;;;;;;26.37;11.63;;;;;;;;;;4992214;28;20204;-82
2022/02/28 08:24:18;;;;;;;23.77;10.73;;;;;;;;;;5008266;28;20245;-81
2022/02/28 08:26:45;;;;;;;26.73;10.50;;;;;;;;;;5012259;28;20211;-81
2022/02/28 08:29:13;;;;;;;20.50;9.87;;;;;;;;;;4992970;28;20275;-81
2022/02/28 08:31:40;;;;;;;21.57;10.20;;;;;;;;;;4997321;28;20200;-82
2022/02/28 08:34:08;;;;;;;22.83;10.73;;;;;;;;;;5000418;28;20205;-82
2022/02/28 08:36:36;;;;;;;26.27;11.80;;;;;;;;;;5000745;28;20197;-81
2022/02/28 08:39:05;;;;;;;19.70;10.43;;;;;;;;;;4992814;28;20225;-81
2022/02/28 08:41:32;;;;;;;20.03;10.53;;;;;;;;;;4992491;28;20201;-82
2022/02/28 08:44:00;;;;;;;22.20;10.30;;;;;;;;;;4992039;28;20293;-81
2022/02/28 08:46:27;;;;;;;20.60;11.63;;;;;;;;;;4992628;28;20281;-81
2022/02/28 08:48:54;;;;;;;20.27;10.27;;;;;;;;;;4992662;28;20287;-81
2022/02/28 08:51:21;;;;;;;18.03;10.03;;;;;;;;;;4992432;28;20262;-81
2022/02/28 08:53:48;;;;;;;19.93;11.03;;;;;;;;;;5003233;28;20731;-82
2022/02/28 08:56:17;;;;;;;17.60;10.13;;;;;;;;;;5003707;28;20227;-81
2022/02/28 08:58:44;;;;;;;18.77;10.50;;;;;;;;;;4999240;28;20734;-80
2022/02/28 09:01:12;;;;;;;19.73;10.43;;;;;;;;;;5012034;28;20274;-80
2022/02/28 09:03:39;;;;;;;17.93;10.07;;;;;;;;;;5007684;28;20202;-80
2022/02/28 09:06:07;;;;;;;19.53;10.87;;;;;;;;;;5003678;28;20291;-80
2022/02/28 09:08:34;;;;;;;20.97;10.23;;;;;;;;;;5011952;28;20225;-80
2022/02/28 09:11:01;;;;;;;17.17;9.87;;;;;;;;;;5012087;28;20607;-81
2022/02/28 09:13:29;;;;;;;17.60;10.13;;;;;;;;;;5002195;28;20285;-81
2022/02/28 09:15:57;;;;;;;22.77;11.10;;;;;;;;;;4992292;28;20632;-81
2022/02/28 09:18:24;;;;;;;20.37;11.13;;;;;;;;;;4995440;28;20204;-81
2022/02/28 09:20:54;;;;;;;19.03;10.37;;;;;;;;;;5004110;28;20278;-82
2022/02/28 09:23:21;;;;;;;19.30;9.90;;;;;;;;;;5010176;28;20210;-82
2022/02/28 09:25:48;;;;;;;20.50;10.27;;;;;;;;;;5013928;28;20205;-82
2022/02/28 09:28:15;;;;;;;16.17;9.10;;;;;;;;;;5015293;28;20256;-82
2022/02/28 09:30:44;;;;;;;16.13;8.93;;;;;;;;;;5014017;28;20287;-82
2022/02/28 09:33:12;;;;;;;17.87;9.43;;;;;;;;;;5014685;28;20620;-81
2022/02/28 09:35:40;;;;;;;15.13;8.80;;;;;;;;;;5015215;28;20610;-82
2022/02/28 09:38:07;;;;;;;16.33;8.33;;;;;;;;;;5014697;28;20248;-81
2022/02/28 09:40:34;;;;;;;17.73;9.13;;;;;;;;;;5015094;28;20228;-82
2022/02/28 09:43:02;;;;;;;18.30;9.80;;;;;;;;;;5014603;28;20202;-82
2022/02/28 09:45:30;;;;;;;19.63;9.80;;;;;;;;;;5014103;28;20712;-81
2022/02/28 09:47:59;;;;;;;19.53;9.00;;;;;;;;;;5014335;28;20268;-82
2022/02/28 09:50:27;;;;;;;21.27;9.10;;;;;;;;;;5000023;28;20197;-81
2022/02/28 09:52:54;;;;;;;14.00;8.00;;;;;;;;;;4995466;28;20229;-82
2022/02/28 09:55:21;;;;;;;16.10;8.03;;;;;;;;;;5014719;28;20240;-81
2022/02/28 09:57:50;;;;;;;12.57;7.40;;;;;;;;;;5013930;28;20244;-82
2022/02/28 10:00:18;;;;;;;11.23;6.70;;;;;;;;;;5014101;28;20243;-82
2022/02/28 10:02:46;;;;;;;11.60;6.43;;;;;;;;;;5014444;28;20704;-82
2022/02/28 10:05:14;;;;;;;11.83;6.97;;;;;;;;;;5014349;28;20630;-82
2022/02/28 10:07:49;;;;;;;12.13;7.23;;;;;;;;;;5006001;28;20207;-82
2022/02/28 10:10:16;;;;;;;13.97;7.60;;;;;;;;;;5013507;28;20589;-83
2022/02/28 10:12:43;;;;;;;16.97;7.60;;;;;;;;;;5013929;28;20296;-82
2022/02/28 10:15:12;;;;;;;13.47;6.57;;;;;;;;;;5004138;28;20229;-83
2022/02/28 10:17:47;;;;;;;13.20;7.50;;;;;;;;;;4995162;28;20225;-83
2022/02/28 10:20:16;;;;;;;11.83;7.20;;;;;;;;;;4994824;28;20696;-83
2022/02/28 10:22:43;;;;;;;10.27;6.87;;;;;;;;;;4997647;28;20237;-83
2022/02/28 10:25:11;;;;;;;14.20;7.17;;;;;;;;;;5013975;28;20280;-83
2022/02/28 10:27:38;;;;;;;14.17;6.90;;;;;;;;;;5012746;28;20201;-83
2022/02/28 10:30:07;;;;;;;11.30;6.67;;;;;;;;;;5012794;28;20315;-83
2022/02/28 10:32:50;;;;;;;12.50;6.90;;;;;;;;;;4994674;28;20222;-84
2022/02/28 10:38:04;;;;;;;12.07;6.97;;;;;;;;;;5013624;28;20196;-84
2022/02/28 10:40:33;;;;;;;12.00;6.83;;;;;;;;;;5013068;28;20231;-83
2022/02/28 10:43:00;;;;;;;11.13;6.90;;;;;;;;;;5002370;28;20193;-83
2022/02/28 10:45:27;;;;;;;12.73;7.07;;;;;;;;;;5012338;28;20197;-83
2022/02/28 10:47:55;;;;;;;11.30;6.70;;;;;;;;;;5003173;28;20229;-83
2022/02/28 10:50:35;;;;;;;12.65;6.65;;;;;;;;;;5003520;28;20264;-82
2022/02/28 10:53:04;;;;;;;13.20;6.63;;;;;;;;;;5010007;28;20297;-82
2022/02/28 10:55:35;;;;;;;12.20;7.13;;;;;;;;;;4993807;28;20233;-82
2022/02/28 10:58:06;;;;;;;14.20;6.87;;;;;;;;;;4993508;28;20583;-82
2022/02/28 11:00:34;;;;;;;13.13;6.80;;;;;;;;;;5002804;28;20198;-82
2022/02/28 11:03:04;;;;;;;14.50;7.13;;;;;;;;;;4999643;28;20228;-82
2022/02/28 11:05:31;;;;;;;13.30;7.27;;;;;;;;;;5005620;28;20229;-83
2022/02/28 11:08:00;;;;;;;14.00;6.50;;;;;;;;;;4993838;28;20233;-82
2022/02/28 11:10:27;;;;;;;14.17;7.07;;;;;;;;;;5000976;28;20253;-81
2022/02/28 11:12:55;;;;;;;14.83;7.53;;;;;;;;;;5006647;28;20228;-82
2022/02/28 11:15:25;;;;;;;12.00;7.57;;;;;;;;;;5002832;28;20566;-82
2022/02/28 11:17:53;;;;;;;14.67;6.80;;;;;;;;;;4993110;28;20209;-81
2022/02/28 11:20:21;;;;;;;15.10;7.63;;;;;;;;;;4992828;28;20202;-81
2022/02/28 11:22:49;;;;;;;13.68;7.20;;;;;;;;;;4992193;28;20867;-81
2022/02/28 11:25:18;;;;;;;13.63;7.30;;;;;;;;;;5002465;28;20228;-81
2022/02/28 11:27:46;;;;;;;14.88;7.45;;;;;;;;;;4996424;28;20221;-81
2022/02/28 11:30:15;;;;;;;11.52;6.75;;;;;;;;;;5001756;28;20304;-82
2022/02/28 11:32:42;;;;;;;12.07;7.05;;;;;;;;;;4995229;28;20237;-82
2022/02/28 11:35:28;;;;;;;14.40;7.53;;;;;;;;;;5011997;28;20280;-82
2022/02/28 11:37:55;;;;;;;14.90;7.53;;;;;;;;;;5006081;28;20237;-81
2022/02/28 11:40:24;;;;;;;15.63;8.50;;;;;;;;;;5001708;28;20576;-81
2022/02/28 11:43:10;;;;;;;13.20;7.87;;;;;;;;;;5011917;28;20584;-80
2022/02/28 11:45:37;;;;;;;12.60;7.43;;;;;;;;;;5006303;28;20227;-83
2022/02/28 11:48:11;;;;;;;14.47;7.50;;;;;;;;;;5003972;28;20277;-83
2022/02/28 11:50:54;;;;;;;13.90;8.27;;;;;;;;;;5011931;28;20260;-82
2022/02/28 11:53:38;;;;;;;15.00;9.43;;;;;;;;;;5011087;28;20204;-83
2022/02/28 11:56:35;;;;;;;13.17;8.60;;;;;;;;;;5000350;28;20284;-83
2022/02/28 11:59:03;;;;;;;13.77;8.27;;;;;;;;;;4998455;28;20233;-83
2022/02/28 12:01:32;;;;;;;10.87;7.03;;;;;;;;;;5009438;28;20225;-83
2022/02/28 12:04:15;;;;;;;11.30;5.87;;;;;;;;;;5007920;28;20197;-82
2022/02/28 12:06:55;;;;;;;11.83;6.20;;;;;;;;;;5005855;28;20208;-83
2022/02/28 12:09:38;;;;;;;12.13;6.47;;;;;;;;;;4994073;28;20260;-82
2022/02/28 12:12:14;;;;;;;12.30;6.53;;;;;;;;;;5012084;28;20205;-83
2022/02/28 12:15:01;;;;;;;12.60;6.43;;;;;;;;;;5010991;28;20632;-82
2022/02/28 12:17:31;;;;;;;12.45;6.68;;;;;;;;;;5005430;28;20209;-84
2022/02/28 12:20:13;;;;;;;14.10;7.65;;;;;;;;;;5011790;28;20569;-83
2022/02/28 12:23:05;;;;;;;14.15;7.43;;;;;;;;;;5012074;28;20271;-83
2022/02/28 12:25:32;;;;;;;13.55;7.75;;;;;;;;;;5012454;28;20208;-84
2022/02/28 12:28:14;;;;;;;13.73;7.47;;;;;;;;;;5011309;28;20271;-85
2022/02/28 12:30:47;;;;;;;14.02;7.35;;;;;;;;;;5004070;28;20221;-84
2022/02/28 12:33:16;;;;;;;11.98;8.20;;;;;;;;;;5006150;28;20201;-84
2022/02/28 12:35:51;;;;;;;14.07;8.00;;;;;;;;;;5000493;28;20236;-85
2022/02/28 12:38:19;;;;;;;15.23;9.50;;;;;;;;;;4998722;28;20201;-85
2022/02/28 12:40:49;;;;;;;16.15;9.93;;;;;;;;;;5010502;28;20231;-85
2022/02/28 12:43:18;;;;;;;16.95;9.90;;;;;;;;;;5008562;28;20240;-85
2022/02/28 12:45:47;;;;;;;19.23;10.60;;;;;;;;;;5004191;28;20205;-84
2022/02/28 12:48:15;;;;;;;16.85;9.73;;;;;;;;;;5011791;28;20207;-84
2022/02/28 12:50:46;;;;;;;15.25;10.40;;;;;;;;;;5003694;28;20328;-83
2022/02/28 12:53:14;;;;;;;14.88;9.20;;;;;;;;;;5008971;28;20201;-83
2022/02/28 12:55:50;;;;;;;19.00;10.40;;;;;;;;;;5011877;28;20211;-83
2022/02/28 12:58:21;;;;;;;16.65;9.98;;;;;;;;;;5003137;28;20264;-84
2022/02/28 13:00:49;;;;;;;17.85;11.15;;;;;;;;;;5008623;28;20201;-83
2022/02/28 13:03:16;;;;;;;18.20;10.30;;;;;;;;;;5011032;28;20198;-83
2022/02/28 13:05:55;;;;;;;16.42;10.68;;;;;;;;;;5014990;28;20208;-84
2022/02/28 13:08:22;;;;;;;20.02;8.70;;;;;;;;;;5015341;28;20288;-84
2022/02/28 13:10:49;;;;;;;12.68;7.70;;;;;;;;;;5014922;28;20657;-84
2022/02/28 13:13:26;;;;;;;10.35;4.80;;;;;;;;;;5014727;28;20292;-84
2022/02/28 13:16:00;;;;;;;11.43;4.85;;;;;;;;;;4996726;28;20203;-84
2022/02/28 13:18:28;;;;;;;9.95;4.70;;;;;;;;;;5002660;28;20289;-83
2022/02/28 13:20:56;;;;;;;11.13;4.68;;;;;;;;;;5015204;28;20275;-82
2022/02/28 13:23:24;;;;;;;8.52;3.95;;;;;;;;;;5005942;28;20206;-84
2022/02/28 13:25:51;;;;;;;7.90;3.40;;;;;;;;;;5001971;28;20284;-84
2022/02/28 13:28:18;;;;;;;6.47;3.05;;;;;;;;;;4995048;28;20232;-83
2022/02/28 13:30:47;;;;;;;8.68;2.75;;;;;;;;;;5008972;28;20252;-83
2022/02/28 13:33:14;;;;;;;7.07;2.75;;;;;;;;;;5014689;28;20232;-84
2022/02/28 13:35:42;;;;;;;9.23;3.55;;;;;;;;;;5011842;28;20224;-83
2022/02/28 13:38:09;;;;;;;10.25;3.63;;;;;;;;;;5000773;28;20229;-84
2022/02/28 13:40:36;;;;;;;7.93;3.80;;;;;;;;;;5014083;28;20288;-85
2022/02/28 13:43:09;;;;;;;7.18;3.67;;;;;;;;;;5013466;28;20288;-83
2022/02/28 13:45:39;;;;;;;6.07;3.63;;;;;;;;;;5013649;28;20280;-84
2022/02/28 13:48:20;;;;;;;8.57;3.65;;;;;;;;;;5014479;28;20719;-84
2022/02/28 13:50:48;;;;;;;9.82;3.55;;;;;;;;;;4996360;28;20221;-82
2022/02/28 13:53:16;;;;;;;9.55;4.05;;;;;;;;;;5004189;28;20259;-84
2022/02/28 13:55:44;;;;;;;7.93;3.72;;;;;;;;;;5014142;28;20926;-85
2022/02/28 13:58:12;;;;;;;11.48;4.10;;;;;;;;;;5011304;28;20213;-84
2022/02/28 14:00:50;;;;;;;8.45;4.50;;;;;;;;;;5014666;28;20235;-82
2022/02/28 14:03:21;;;;;;;7.75;4.45;;;;;;;;;;5012697;28;20236;-85
2022/02/28 14:05:49;;;;;;;5.82;3.25;;;;;;;;;;5014229;28;20267;-83
2022/02/28 14:08:17;;;;;;;7.40;2.92;;;;;;;;;;5013368;28;20281;-84
2022/02/28 14:10:45;;;;;;;7.43;3.00;;;;;;;;;;5012433;28;20267;-84
2022/02/28 14:13:19;;;;;;;5.77;2.70;;;;;;;;;;5014279;28;20300;-84
2022/02/28 14:15:47;;;;;;;6.07;2.80;;;;;;;;;;5013778;28;20235;-84
2022/02/28 14:18:14;;;;;;;5.80;2.83;;;;;;;;;;5009872;28;20304;-84
2022/02/28 14:20:43;;;;;;;5.03;2.43;;;;;;;;;;5013453;28;20640;-84
2022/02/28 14:23:12;;;;;;;4.97;2.17;;;;;;;;;;5014086;28;20236;-84
2022/02/28 14:25:41;;;;;;;4.37;2.20;;;;;;;;;;5013034;28;20212;-84
2022/02/28 14:28:14;;;;;;;5.30;2.10;;;;;;;;;;5013058;28;20300;-84
2022/02/28 14:30:42;;;;;;;5.80;2.40;;;;;;;;;;5003604;28;20253;-84
2022/02/28 14:33:11;;;;;;;3.90;2.10;;;;;;;;;;5011992;28;20240;-84
2022/02/28 14:35:39;;;;;;;4.38;2.15;;;;;;;;;;5003804;28;20241;-83
2022/02/28 14:38:09;;;;;;;5.55;2.53;;;;;;;;;;5002021;28;20197;-84
2022/02/28 14:40:37;;;;;;;6.53;2.33;;;;;;;;;;5000939;28;20202;-83
2022/02/28 14:43:04;;;;;;;4.72;1.83;;;;;;;;;;5008996;28;20217;-83